createdAt,value
2023-03-01T00:01:22.747Z,-2.90
2023-03-01T00:03:50.405Z,-2.84
2023-03-01T00:06:17.818Z,-2.81
2023-03-01T00:08:45.061Z,-3.03
2023-03-01T00:11:16.391Z,-2.77
2023-03-01T00:13:44.432Z,-2.77
2023-03-01T00:16:15.224Z,-2.84
2023-03-01T00:18:42.408Z,-2.81
2023-03-01T00:21:09.607Z,-2.77
2023-03-01T00:23:37.628Z,-2.77
2023-03-01T00:26:09.266Z,-2.76
2023-03-01T00:28:36.453Z,-2.89
2023-03-01T00:31:08.936Z,-3.04
2023-03-01T00:33:35.887Z,-3.11
2023-03-01T00:36:04.201Z,-3.11
2023-03-01T00:38:32.088Z,-3.09
2023-03-01T00:41:08.643Z,-3.18
2023-03-01T00:43:37.879Z,-3.10
2023-03-01T00:46:11.277Z,-3.12
2023-03-01T00:48:38.678Z,-3.14
2023-03-01T00:51:14.857Z,-3.11
2023-03-01T00:53:42.305Z,-3.17
2023-03-01T00:56:12.197Z,-3.19
2023-03-01T00:58:39.328Z,-3.14
2023-03-01T01:01:20.598Z,-3.06
2023-03-01T01:04:00.256Z,-3.00
2023-03-01T01:06:34.213Z,-3.01
2023-03-01T01:09:13.824Z,-2.76
2023-03-01T01:11:40.908Z,-3.05
2023-03-01T01:14:07.891Z,-3.00
2023-03-01T01:16:34.749Z,-3.01
2023-03-01T01:19:01.706Z,-3.02
2023-03-01T01:21:29.136Z,-2.96
2023-03-01T01:23:57.623Z,-3.05
2023-03-01T01:26:27.529Z,-2.96
2023-03-01T01:28:55.604Z,-2.98
2023-03-01T01:31:27.127Z,-2.84
2023-03-01T01:33:55.017Z,-2.95
2023-03-01T01:36:25.953Z,-3.01
2023-03-01T01:38:53.004Z,-2.96
2023-03-01T01:41:21.371Z,-3.03
2023-03-01T01:44:09.604Z,-3.06
2023-03-01T01:46:40.294Z,-3.08
2023-03-01T01:49:26.536Z,-3.16
2023-03-01T01:52:12.015Z,-3.12
2023-03-01T01:54:53.523Z,-3.21
2023-03-01T01:57:27.542Z,-3.10
2023-03-01T01:59:59.908Z,-3.16
2023-03-01T02:02:27.870Z,-3.08
2023-03-01T02:05:05.056Z,-3.16
2023-03-01T02:07:32.282Z,-3.14
2023-03-01T02:09:59.979Z,-3.21
2023-03-01T02:12:27.342Z,-3.30
2023-03-01T02:14:57.120Z,-3.34
2023-03-01T02:17:25.885Z,-3.38
2023-03-01T02:20:25.394Z,-3.38
2023-03-01T02:22:54.879Z,-3.33
2023-03-01T02:25:48.114Z,-3.30
2023-03-01T02:28:14.915Z,-3.29
2023-03-01T02:31:05.355Z,-3.15
2023-03-01T02:33:34.028Z,-3.25
2023-03-01T02:36:08.161Z,-3.34
2023-03-01T02:38:35.210Z,-3.48
2023-03-01T02:41:04.876Z,-3.40
2023-03-01T02:43:34.216Z,-3.49
2023-03-01T02:46:08.478Z,-3.52
2023-03-01T02:48:44.726Z,-3.56
2023-03-01T02:51:28.990Z,-3.45
2023-03-01T02:54:08.199Z,-3.39
2023-03-01T02:56:36.032Z,-3.39
2023-03-01T02:59:03.880Z,-3.49
2023-03-01T03:05:24.593Z,-3.46
2023-03-01T03:07:51.921Z,-3.31
2023-03-01T03:10:25.750Z,-3.30
2023-03-01T03:12:58.481Z,-3.38
2023-03-01T03:15:27.211Z,-3.39
2023-03-01T03:17:54.570Z,-3.34
2023-03-01T03:20:25.780Z,-3.26
2023-03-01T03:22:55.836Z,-3.15
2023-03-01T03:25:23.601Z,-3.01
2023-03-01T03:27:57.948Z,-2.50
2023-03-01T03:30:31.559Z,-2.60
2023-03-01T03:33:00.264Z,-2.64
2023-03-01T03:35:34.036Z,-2.64
2023-03-01T03:38:06.901Z,-2.58
2023-03-01T03:40:35.473Z,-2.57
2023-03-01T03:43:03.607Z,-2.56
2023-03-01T03:45:30.618Z,-2.62
2023-03-01T03:47:57.640Z,-2.67
2023-03-01T03:50:24.684Z,-2.61
2023-03-01T03:52:52.361Z,-2.91
2023-03-01T03:55:20.509Z,-3.15
2023-03-01T03:57:52.754Z,-3.19
2023-03-01T04:00:22.253Z,-3.20
2023-03-01T04:02:49.973Z,-3.16
2023-03-01T04:05:19.122Z,-3.28
2023-03-01T04:07:47.064Z,-3.31
2023-03-01T04:10:19.222Z,-3.30
2023-03-01T04:12:46.141Z,-3.29
2023-03-01T04:15:16.282Z,-3.34
2023-03-01T04:17:47.928Z,-3.43
2023-03-01T04:20:26.161Z,-3.47
2023-03-01T04:23:22.739Z,-3.54
2023-03-01T04:25:56.609Z,-3.57
2023-03-01T04:28:32.351Z,-3.59
2023-03-01T04:30:59.965Z,-3.69
2023-03-01T04:33:29.813Z,-3.63
2023-03-01T04:35:59.489Z,-3.51
2023-03-01T04:38:26.665Z,-3.60
2023-03-01T04:40:53.425Z,-3.44
2023-03-01T04:43:20.375Z,-3.49
2023-03-01T04:45:47.344Z,-3.56
2023-03-01T04:48:14.136Z,-3.54
2023-03-01T04:50:44.078Z,-3.58
2023-03-01T04:53:11.150Z,-3.53
2023-03-01T04:55:38.171Z,-3.29
2023-03-01T04:58:05.053Z,-2.99
2023-03-01T05:00:32.188Z,-2.74
2023-03-01T05:03:01.722Z,-2.45
2023-03-01T05:05:32.521Z,-2.23
2023-03-01T05:08:01.669Z,-1.84
2023-03-01T05:10:34.055Z,-1.73
2023-03-01T05:13:00.985Z,-1.64
2023-03-01T05:15:29.892Z,-1.57
2023-03-01T05:18:02.219Z,-1.50
2023-03-01T05:20:31.180Z,-1.36
2023-03-01T05:23:00.555Z,-1.30
2023-03-01T05:25:34.271Z,-1.24
2023-03-01T05:28:05.542Z,-0.91
2023-03-01T05:30:34.574Z,-1.03
2023-03-01T05:33:02.185Z,-1.04
2023-03-01T05:35:30.780Z,-0.98
2023-03-01T05:37:57.793Z,-0.81
2023-03-01T05:40:25.423Z,-0.62
2023-03-01T05:42:57.858Z,-0.55
2023-03-01T05:45:26.916Z,-0.57
2023-03-01T05:47:56.211Z,-0.53
2023-03-01T05:50:28.581Z,-0.50
2023-03-01T05:53:00.114Z,-0.42
2023-03-01T05:55:29.155Z,-0.32
2023-03-01T05:57:56.984Z,-0.45
2023-03-01T06:00:23.916Z,-0.49
2023-03-01T06:02:53.047Z,-0.49
2023-03-01T06:05:19.879Z,-0.53
2023-03-01T06:07:46.806Z,-0.61
2023-03-01T06:10:14.829Z,-0.70
2023-03-01T06:12:43.583Z,-0.78
2023-03-01T06:15:13.524Z,-0.81
2023-03-01T06:17:42.550Z,-0.82
2023-03-01T06:20:15.772Z,-0.89
2023-03-01T06:22:43.520Z,-0.97
2023-03-01T06:25:12.100Z,-0.81
2023-03-01T06:27:41.960Z,-0.87
2023-03-01T06:30:13.388Z,-0.78
2023-03-01T06:32:43.219Z,-0.63
2023-03-01T06:35:14.821Z,-0.52
2023-03-01T06:37:42.602Z,-0.37
2023-03-01T06:40:12.843Z,-0.05
2023-03-01T06:42:42.493Z,-0.04
2023-03-01T06:45:10.354Z,0.17
2023-03-01T06:47:37.456Z,0.34
2023-03-01T06:50:05.501Z,0.48
2023-03-01T06:55:00.221Z,0.66
2023-03-01T06:57:27.507Z,0.66
2023-03-01T06:59:54.636Z,0.89
2023-03-01T07:02:21.843Z,0.61
2023-03-01T07:04:51.450Z,0.74
2023-03-01T07:07:19.434Z,1.00
2023-03-01T07:09:47.042Z,1.10
2023-03-01T07:12:14.088Z,1.06
2023-03-01T07:14:41.328Z,1.22
2023-03-01T07:17:09.782Z,1.35
2023-03-01T07:19:36.616Z,1.51
2023-03-01T07:22:05.630Z,1.61
2023-03-01T07:24:32.577Z,1.64
2023-03-01T07:26:59.393Z,1.79
2023-03-01T07:29:26.357Z,1.98
2023-03-01T07:31:53.364Z,1.92
2023-03-01T07:34:20.276Z,2.25
2023-03-01T07:36:47.226Z,2.55
2023-03-01T07:39:14.475Z,2.80
2023-03-01T07:41:41.305Z,3.02
2023-03-01T07:44:08.298Z,3.08
2023-03-01T07:46:35.189Z,3.08
2023-03-01T07:49:02.285Z,3.08
2023-03-01T07:51:29.066Z,2.76
2023-03-01T07:53:55.924Z,2.75
2023-03-01T07:56:23.256Z,3.17
2023-03-01T07:58:51.218Z,3.65
2023-03-01T08:01:21.580Z,4.26
2023-03-01T08:03:49.373Z,4.32
2023-03-01T08:06:17.828Z,4.91
2023-03-01T08:08:45.596Z,5.44
2023-03-01T08:11:15.667Z,5.63
2023-03-01T08:13:43.884Z,5.38
2023-03-01T08:16:16.348Z,5.15
2023-03-01T08:18:44.424Z,5.04
2023-03-01T08:21:13.872Z,5.26
2023-03-01T08:23:42.230Z,5.55
2023-03-01T08:26:21.057Z,5.45
2023-03-01T08:28:49.604Z,5.78
2023-03-01T08:31:16.550Z,5.87
2023-03-01T08:33:43.954Z,5.98
2023-03-01T08:36:11.211Z,6.83
2023-03-01T08:38:38.042Z,7.80
2023-03-01T08:41:05.454Z,7.86
2023-03-01T08:43:32.550Z,7.81
2023-03-01T08:45:59.402Z,8.87
2023-03-01T08:48:31.348Z,9.82
2023-03-01T08:50:59.395Z,10.14
2023-03-01T08:53:29.273Z,10.26
2023-03-01T08:55:56.159Z,9.16
2023-03-01T08:58:23.144Z,8.60
2023-03-01T09:00:50.183Z,8.24
2023-03-01T09:03:17.843Z,7.98
2023-03-01T09:05:47.145Z,7.83
2023-03-01T09:08:14.372Z,7.87
2023-03-01T09:10:41.445Z,8.24
2023-03-01T09:13:08.218Z,8.41
2023-03-01T09:15:35.335Z,8.77
2023-03-01T09:18:02.474Z,8.85
2023-03-01T09:20:30.760Z,8.34
2023-03-01T09:22:57.760Z,8.52
2023-03-01T09:25:25.074Z,8.44
2023-03-01T09:27:53.593Z,8.66
2023-03-01T09:30:21.492Z,8.61
2023-03-01T09:32:48.960Z,8.69
2023-03-01T09:35:17.218Z,8.25
2023-03-01T09:37:44.185Z,8.38
2023-03-01T09:40:17.827Z,8.53
2023-03-01T09:42:57.785Z,8.22
2023-03-01T09:45:35.138Z,8.18
2023-03-01T09:48:05.116Z,8.71
2023-03-01T09:50:42.321Z,8.33
2023-03-01T09:53:17.097Z,8.25
2023-03-01T09:55:47.580Z,7.78
2023-03-01T09:58:38.238Z,7.81
2023-03-01T10:01:34.044Z,7.73
2023-03-01T10:04:31.909Z,7.86
2023-03-01T10:07:11.150Z,8.00
2023-03-01T10:09:41.481Z,8.00
2023-03-01T10:12:25.692Z,8.06
2023-03-01T10:15:43.437Z,8.08
2023-03-01T10:18:41.081Z,8.06
2023-03-01T10:21:18.299Z,7.61
2023-03-01T10:23:45.654Z,7.32
2023-03-01T10:26:41.130Z,7.63
2023-03-01T10:29:10.250Z,7.31
2023-03-01T10:31:45.692Z,7.23
2023-03-01T10:34:28.199Z,7.50
2023-03-01T10:36:59.484Z,7.54
2023-03-01T10:39:27.957Z,7.43
2023-03-01T10:42:07.445Z,7.66
2023-03-01T10:44:49.032Z,7.67
2023-03-01T10:47:24.565Z,7.92
2023-03-01T10:50:04.412Z,7.55
2023-03-01T10:52:41.903Z,7.20
2023-03-01T10:55:18.125Z,7.13
2023-03-01T10:57:44.980Z,7.40
2023-03-01T11:00:20.546Z,7.17
2023-03-01T11:03:18.459Z,7.35
2023-03-01T11:06:14.422Z,8.00
2023-03-01T11:08:52.054Z,7.97
2023-03-01T11:11:21.854Z,8.10
2023-03-01T11:14:03.168Z,8.23
2023-03-01T11:16:41.162Z,8.62
2023-03-01T11:19:11.046Z,8.85
2023-03-01T11:21:48.689Z,9.07
2023-03-01T11:24:18.561Z,9.07
2023-03-01T11:27:09.102Z,9.36
2023-03-01T11:29:48.858Z,9.84
2023-03-01T11:32:17.103Z,9.62
2023-03-01T11:35:19.529Z,9.27
2023-03-01T11:38:11.915Z,9.51
2023-03-01T11:41:09.388Z,9.22
2023-03-01T11:43:55.165Z,8.59
2023-03-01T11:46:34.911Z,8.17
2023-03-01T11:49:36.324Z,8.58
2023-03-01T11:52:29.651Z,8.76
2023-03-01T11:55:11.152Z,9.28
2023-03-01T11:57:52.432Z,9.48
2023-03-01T12:00:38.218Z,9.48
2023-03-01T12:03:32.371Z,9.28
2023-03-01T12:06:29.618Z,8.10
2023-03-01T12:09:17.951Z,8.01
2023-03-01T12:12:11.759Z,8.43
2023-03-01T12:15:04.528Z,8.81
2023-03-01T12:18:00.938Z,9.05
2023-03-01T12:20:37.948Z,9.15
2023-03-01T12:23:19.626Z,9.05
2023-03-01T12:25:56.002Z,8.39
2023-03-01T12:28:50.511Z,8.59
2023-03-01T12:31:58.918Z,8.92
2023-03-01T12:34:48.426Z,8.57
2023-03-01T12:37:36.713Z,8.29
2023-03-01T12:40:42.671Z,8.15
2023-03-01T12:43:25.629Z,8.31
2023-03-01T12:46:08.500Z,9.10
2023-03-01T12:48:53.130Z,9.57
2023-03-01T12:51:25.642Z,9.32
2023-03-01T12:53:56.382Z,9.58
2023-03-01T12:56:26.072Z,9.33
2023-03-01T12:59:04.598Z,9.32
2023-03-01T13:01:53.393Z,9.52
2023-03-01T13:04:20.343Z,9.70
2023-03-01T13:06:59.384Z,9.53
2023-03-01T13:09:45.572Z,9.33
2023-03-01T13:12:44.286Z,9.27
2023-03-01T13:15:23.147Z,9.73
2023-03-01T13:17:52.672Z,10.22
2023-03-01T13:20:47.238Z,10.69
2023-03-01T13:23:22.909Z,10.21
2023-03-01T13:26:17.359Z,10.25
2023-03-01T13:28:57.914Z,9.99
2023-03-01T13:31:27.650Z,9.72
2023-03-01T13:34:02.088Z,9.85
2023-03-01T13:36:29.144Z,9.95
2023-03-01T13:38:59.975Z,9.99
2023-03-01T13:41:45.019Z,10.04
2023-03-01T13:44:29.936Z,10.52
2023-03-01T13:47:18.659Z,10.80
2023-03-01T13:49:51.389Z,10.92
2023-03-01T13:52:41.676Z,10.69
2023-03-01T13:55:20.404Z,10.16
2023-03-01T13:57:54.877Z,9.62
2023-03-01T14:00:41.449Z,9.05
2023-03-01T14:03:20.117Z,8.29
2023-03-01T14:06:19.080Z,7.79
2023-03-01T14:08:50.736Z,7.47
2023-03-01T14:11:55.958Z,7.18
2023-03-01T14:14:40.193Z,7.12
2023-03-01T14:17:34.583Z,7.09
2023-03-01T14:20:23.620Z,6.86
2023-03-01T14:22:55.275Z,6.79
2023-03-01T14:25:25.795Z,6.78
2023-03-01T14:28:17.651Z,6.72
2023-03-01T14:30:47.823Z,6.74
2023-03-01T14:33:25.442Z,6.63
2023-03-01T14:36:07.711Z,6.64
2023-03-01T14:38:44.106Z,6.64
2023-03-01T14:41:19.829Z,6.60
2023-03-01T14:44:02.457Z,6.29
2023-03-01T14:46:36.343Z,6.44
2023-03-01T14:49:13.521Z,6.42
2023-03-01T14:51:42.878Z,6.41
2023-03-01T14:54:27.977Z,6.11
2023-03-01T14:56:59.310Z,6.21
2023-03-01T14:59:26.606Z,6.17
2023-03-01T15:01:57.471Z,6.16
2023-03-01T15:04:28.485Z,5.98
2023-03-01T15:07:06.339Z,6.23
2023-03-01T15:09:37.691Z,6.31
2023-03-01T15:12:35.449Z,6.19
2023-03-01T15:15:04.689Z,6.05
2023-03-01T15:17:35.657Z,5.77
2023-03-01T15:20:05.689Z,5.84
2023-03-01T15:22:32.783Z,5.72
2023-03-01T15:25:00.280Z,5.52
2023-03-01T15:27:28.846Z,5.63
2023-03-01T15:30:00.584Z,5.47
2023-03-01T15:32:40.339Z,5.28
2023-03-01T15:35:49.245Z,5.23
2023-03-01T15:38:55.518Z,5.00
2023-03-01T15:41:33.764Z,5.08
2023-03-01T15:44:15.443Z,5.08
2023-03-01T15:46:48.444Z,5.13
2023-03-01T15:49:30.857Z,5.10
2023-03-01T15:51:58.182Z,4.86
2023-03-01T15:54:30.188Z,4.84
2023-03-01T15:56:57.372Z,4.89
2023-03-01T15:59:24.580Z,4.82
2023-03-01T16:01:54.534Z,4.74
2023-03-01T16:04:22.114Z,4.48
2023-03-01T16:06:55.456Z,4.57
2023-03-01T16:09:27.279Z,4.51
2023-03-01T16:11:55.221Z,4.52
2023-03-01T16:14:22.366Z,4.51
2023-03-01T16:16:54.960Z,4.32
2023-03-01T16:19:22.116Z,4.28
2023-03-01T16:21:50.548Z,4.27
2023-03-01T16:24:18.337Z,4.16
2023-03-01T16:26:47.734Z,4.12
2023-03-01T16:29:17.752Z,4.14
2023-03-01T16:31:44.808Z,4.02
2023-03-01T16:34:12.071Z,3.66
2023-03-01T16:36:39.997Z,3.74
2023-03-01T16:39:07.708Z,3.41
2023-03-01T16:41:34.669Z,3.54
2023-03-01T16:44:04.521Z,3.23
2023-03-01T16:46:31.430Z,3.42
2023-03-01T16:48:58.590Z,3.45
2023-03-01T16:51:26.172Z,3.30
2023-03-01T16:53:56.144Z,3.25
2023-03-01T16:56:23.026Z,3.09
2023-03-01T16:58:49.946Z,2.94
2023-03-01T17:01:21.661Z,2.87
2023-03-01T17:03:50.720Z,2.42
2023-03-01T17:06:21.756Z,2.45
2023-03-01T17:08:48.810Z,2.51
2023-03-01T17:11:19.670Z,2.29
2023-03-01T17:13:47.035Z,2.31
2023-03-01T17:16:17.511Z,2.18
2023-03-01T17:18:44.988Z,2.06
2023-03-01T17:21:12.767Z,1.94
2023-03-01T17:23:42.326Z,1.64
2023-03-01T17:26:09.656Z,1.64
2023-03-01T17:28:37.843Z,1.53
2023-03-01T17:31:07.051Z,1.42
2023-03-01T17:33:34.220Z,1.30
2023-03-01T17:36:05.722Z,1.34
2023-03-01T17:38:32.559Z,1.24
2023-03-01T17:41:01.858Z,1.36
2023-03-01T17:43:29.307Z,1.36
2023-03-01T17:45:57.496Z,1.27
2023-03-01T17:48:24.587Z,1.25
2023-03-01T17:50:51.526Z,1.22
2023-03-01T17:53:18.485Z,1.07
2023-03-01T17:55:45.521Z,0.92
2023-03-01T17:58:14.279Z,1.14
2023-03-01T18:00:41.462Z,0.74
2023-03-01T18:03:08.812Z,0.92
2023-03-01T18:05:38.153Z,1.14
2023-03-01T18:08:08.445Z,0.97
2023-03-01T18:10:36.872Z,0.66
2023-03-01T18:13:05.262Z,0.88
2023-03-01T18:15:33.597Z,0.80
2023-03-01T18:18:00.450Z,0.81
2023-03-01T18:20:28.152Z,0.91
2023-03-01T18:22:55.132Z,0.63
2023-03-01T18:25:22.295Z,0.86
2023-03-01T18:27:51.666Z,0.65
2023-03-01T18:30:19.209Z,0.47
2023-03-01T18:32:46.163Z,0.73
2023-03-01T18:35:13.221Z,0.70
2023-03-01T18:37:41.469Z,0.74
2023-03-01T18:40:13.157Z,0.78
2023-03-01T18:42:40.978Z,0.70
2023-03-01T18:45:08.418Z,0.54
2023-03-01T18:47:35.221Z,0.31
2023-03-01T18:50:02.400Z,0.44
2023-03-01T18:52:29.279Z,0.38
2023-03-01T18:54:56.770Z,0.20
2023-03-01T18:57:23.760Z,0.18
2023-03-01T18:59:50.503Z,0.06
2023-03-01T19:02:17.703Z,0.14
2023-03-01T19:04:44.550Z,-0.13
2023-03-01T19:07:12.784Z,-0.18
2023-03-01T19:09:40.408Z,-0.03
2023-03-01T19:12:07.755Z,-0.03
2023-03-01T19:14:35.384Z,0.17
2023-03-01T19:17:02.394Z,-0.15
2023-03-01T19:19:32.289Z,0.30
2023-03-01T19:22:05.775Z,0.40
2023-03-01T19:24:33.234Z,0.46
2023-03-01T19:27:02.526Z,0.79
2023-03-01T19:29:29.951Z,0.97
2023-03-01T19:31:56.879Z,0.79
2023-03-01T19:34:25.764Z,0.54
2023-03-01T19:36:54.366Z,0.41
2023-03-01T19:39:26.587Z,0.58
2023-03-01T19:41:56.848Z,0.51
2023-03-01T19:44:25.539Z,0.66
2023-03-01T19:46:54.546Z,0.87
2023-03-01T19:49:21.803Z,0.65
2023-03-01T19:51:48.791Z,0.97
2023-03-01T19:54:20.412Z,1.14
2023-03-01T19:56:48.220Z,1.36
2023-03-01T19:59:15.866Z,1.30
2023-03-01T20:01:42.848Z,1.25
2023-03-01T20:04:13.558Z,1.31
2023-03-01T20:06:42.077Z,1.26
2023-03-01T20:09:21.942Z,1.47
2023-03-01T20:11:49.981Z,1.23
2023-03-01T20:14:17.131Z,0.95
2023-03-01T20:16:43.951Z,1.10
2023-03-01T20:19:11.237Z,1.11
2023-03-01T20:21:38.347Z,1.36
2023-03-01T20:24:05.634Z,1.45
2023-03-01T20:26:35.826Z,1.32
2023-03-01T20:29:12.784Z,1.47
2023-03-01T20:31:41.714Z,1.45
2023-03-01T20:34:08.913Z,0.98
2023-03-01T20:36:38.587Z,0.57
2023-03-01T20:39:05.617Z,0.31
2023-03-01T20:41:35.924Z,0.34
2023-03-01T20:44:04.767Z,0.13
2023-03-01T20:46:33.322Z,0.03
2023-03-01T20:49:00.768Z,0.12
2023-03-01T20:51:27.698Z,0.15
2023-03-01T20:53:54.902Z,0.40
2023-03-01T20:56:27.281Z,0.06
2023-03-01T20:58:58.608Z,0.10
2023-03-01T21:01:25.935Z,0.14
2023-03-01T21:03:53.108Z,0.26
2023-03-01T21:06:20.280Z,0.04
2023-03-01T21:08:47.158Z,-0.18
2023-03-01T21:11:16.287Z,-0.21
2023-03-01T21:13:45.040Z,0.03
2023-03-01T21:16:17.120Z,0.04
2023-03-01T21:18:44.391Z,-0.22
2023-03-01T21:21:14.507Z,0.03
2023-03-01T21:23:42.673Z,0.29
2023-03-01T21:26:28.248Z,0.51
2023-03-01T21:29:03.449Z,0.74
2023-03-01T21:31:35.388Z,0.49
2023-03-01T21:34:06.329Z,0.86
2023-03-01T21:36:37.102Z,0.81
2023-03-01T21:39:07.189Z,1.14
2023-03-01T21:41:37.074Z,1.10
2023-03-01T21:44:06.464Z,0.79
2023-03-01T21:46:36.926Z,0.98
2023-03-01T21:49:05.231Z,1.00
2023-03-01T21:51:32.456Z,0.95
2023-03-01T21:54:03.317Z,0.97
2023-03-01T21:56:34.841Z,1.10
2023-03-01T21:59:02.296Z,1.28
2023-03-01T22:01:34.758Z,1.08
2023-03-01T22:04:03.485Z,1.02
2023-03-01T22:06:38.340Z,0.91
2023-03-01T22:09:09.159Z,1.11
2023-03-01T22:11:39.748Z,0.51
2023-03-01T22:14:07.264Z,0.77
2023-03-01T22:16:36.699Z,1.11
2023-03-01T22:19:05.014Z,1.06
2023-03-01T22:21:31.845Z,1.09
2023-03-01T22:23:59.180Z,0.63
2023-03-01T22:26:35.589Z,0.51
2023-03-01T22:29:05.915Z,0.22
2023-03-01T22:31:34.334Z,0.33
2023-03-01T22:34:06.753Z,0.37
2023-03-01T22:36:34.457Z,0.62
2023-03-01T22:39:02.299Z,0.91
2023-03-01T22:41:32.261Z,0.89
2023-03-01T22:43:59.269Z,0.68
2023-03-01T22:46:27.791Z,0.71
2023-03-01T22:48:56.928Z,0.69
2023-03-01T22:51:30.995Z,0.87
2023-03-01T22:53:58.309Z,1.02
2023-03-01T22:56:32.143Z,0.84
2023-03-01T22:59:02.472Z,1.00
2023-03-01T23:01:30.841Z,0.86
2023-03-01T23:03:58.571Z,0.93
2023-03-01T23:06:26.251Z,0.93
2023-03-01T23:08:57.553Z,0.96
2023-03-01T23:11:26.643Z,0.92
2023-03-01T23:13:54.941Z,1.00
2023-03-01T23:16:26.887Z,0.97
2023-03-01T23:18:59.386Z,1.17
2023-03-01T23:21:26.567Z,1.02
2023-03-01T23:23:56.252Z,0.92
2023-03-01T23:26:27.198Z,1.00
2023-03-01T23:28:55.767Z,1.19
2023-03-01T23:31:23.058Z,0.92
2023-03-01T23:33:50.108Z,0.98
2023-03-01T23:36:23.877Z,1.19
2023-03-01T23:38:54.244Z,0.62
2023-03-01T23:41:23.648Z,0.83
2023-03-01T23:43:54.124Z,0.66
2023-03-01T23:46:23.416Z,0.58
2023-03-01T23:48:50.693Z,0.47
2023-03-01T23:51:18.758Z,-0.04
2023-03-01T23:53:54.706Z,-0.24
2023-03-01T23:56:41.844Z,-0.10
2023-03-01T23:59:20.564Z,0.14
